Avoca, Indiana
Current Conditions -  °F | °C
As of 3:53 AM on Wednesday 26 Nov 2014 (Local Time) from KBMG Reporting Station
Overcast Overcast  
Wind Chill: 27°   Ceiling: 1200
Heat Index: 27°   Visibility: 10mi
Dew Point: 23°   Wind: 3mph
Humidity: 85%   Direction: NA
Pressure: 30.14"   Gusts: NA
Location:  38.91°N, 86.55°W
Report Text: KBMG 260853Z VRB03KT 10SM OVC012 M03/M05 A3014 RMK AO2 SLP216 T10281050 56007
Loading
Personal Weather Stations






























Interactive Weather Map New forecast layout! Learn more

10-Day Weather Forecast

Advertisements
Track Severe Weather on mobile